createdAt,value
2022-08-09T00:00:08.060Z,18.60
2022-08-09T00:02:42.786Z,18.60
2022-08-09T00:06:19.655Z,18.40
2022-08-09T00:08:04.733Z,18.50
2022-08-09T00:10:37.874Z,18.50
2022-08-09T00:13:12.880Z,18.40
2022-08-09T00:15:59.847Z,18.40
2022-08-09T00:18:34.708Z,18.30
2022-08-09T00:26:18.550Z,18.30
2022-08-09T00:28:52.335Z,18.20
2022-08-09T00:31:57.162Z,18.20
2022-08-09T00:34:10.831Z,18.20
2022-08-09T00:36:38.027Z,18.20
2022-08-09T00:44:13.562Z,18.30
2022-08-09T00:47:08.538Z,18.30
2022-08-09T00:49:42.497Z,18.20
2022-08-09T00:52:19.521Z,18.30
2022-08-09T00:54:48.572Z,18.30
2022-08-09T00:57:24.822Z,18.30
2022-08-09T01:00:22.129Z,18.20
2022-08-09T01:03:18.522Z,18.20
2022-08-09T01:05:59.553Z,18.20
2022-08-09T01:08:49.353Z,18.10
2022-08-09T01:11:23.872Z,18.10
2022-08-09T01:14:07.331Z,18.10
2022-08-09T01:16:47.507Z,18.00
2022-08-09T01:19:57.076Z,17.90
2022-08-09T01:22:52.010Z,17.90
2022-08-09T01:26:05.618Z,17.90
2022-08-09T01:28:34.495Z,17.80
2022-08-09T01:31:02.603Z,17.90
2022-08-09T01:33:38.364Z,17.80
2022-08-09T01:36:09.113Z,17.70
2022-08-09T01:38:39.951Z,17.80
2022-08-09T01:41:13.271Z,17.70
2022-08-09T01:43:51.881Z,17.70
2022-08-09T01:46:29.258Z,17.70
2022-08-09T01:49:10.770Z,17.70
2022-08-09T01:51:53.732Z,17.60
2022-08-09T01:54:25.935Z,17.70
2022-08-09T01:56:54.752Z,17.60
2022-08-09T01:59:24.281Z,17.40
2022-08-09T02:01:59.773Z,17.60
2022-08-09T02:04:29.699Z,17.40
2022-08-09T02:07:08.704Z,17.40
2022-08-09T02:09:59.789Z,17.40
2022-08-09T02:12:30.741Z,17.50
2022-08-09T02:15:00.203Z,17.40
2022-08-09T02:18:00.272Z,17.40
2022-08-09T02:20:26.589Z,17.30
2022-08-09T02:23:09.902Z,17.30
2022-08-09T02:25:42.201Z,17.40
2022-08-09T02:28:18.882Z,17.40
2022-08-09T02:30:52.900Z,17.30
2022-08-09T02:33:37.998Z,17.30
2022-08-09T02:36:16.962Z,17.20
2022-08-09T02:38:56.863Z,17.30
2022-08-09T02:41:56.575Z,17.30
2022-08-09T02:44:31.198Z,17.20
2022-08-09T02:47:04.466Z,17.10
2022-08-09T02:49:38.914Z,17.20
2022-08-09T02:52:11.889Z,16.90
2022-08-09T02:54:53.977Z,17.00
2022-08-09T02:57:23.888Z,17.00
2022-08-09T03:00:20.802Z,16.90
2022-08-09T03:02:52.536Z,16.80
2022-08-09T03:05:26.578Z,16.80
2022-08-09T03:10:24.431Z,16.70
2022-08-09T03:12:53.169Z,16.70
2022-08-09T03:17:57.936Z,16.70
2022-08-09T03:20:29.426Z,16.60
2022-08-09T03:23:00.475Z,16.70
2022-08-09T03:26:03.430Z,16.80
2022-08-09T03:28:31.102Z,16.70
2022-08-09T03:30:59.196Z,16.80
2022-08-09T03:33:53.293Z,16.80
2022-08-09T03:38:47.905Z,16.80
2022-08-09T03:41:18.393Z,16.80
2022-08-09T03:44:02.906Z,16.80
2022-08-09T03:46:34.239Z,16.60
2022-08-09T03:49:04.323Z,16.60
2022-08-09T03:51:55.979Z,16.60
2022-08-09T03:54:29.364Z,16.50
2022-08-09T03:57:00.589Z,16.60
2022-08-09T04:07:17.646Z,16.70
2022-08-09T04:09:49.865Z,16.80
2022-08-09T04:15:02.374Z,16.70
2022-08-09T04:17:42.489Z,16.60
2022-08-09T04:30:20.903Z,16.80
2022-08-09T04:32:50.922Z,16.80
2022-08-09T04:37:49.666Z,16.90
2022-08-09T04:43:03.854Z,17.00
2022-08-09T04:53:17.165Z,17.10
2022-08-09T04:58:27.664Z,17.30
2022-08-09T05:03:41.058Z,17.40
2022-08-09T05:06:26.785Z,17.50
2022-08-09T05:09:00.871Z,17.50
2022-08-09T05:11:30.609Z,17.50
2022-08-09T05:14:06.571Z,17.60
2022-08-09T05:16:43.496Z,17.60
2022-08-09T05:19:24.509Z,17.60
2022-08-09T05:21:55.824Z,17.70
2022-08-09T05:34:31.611Z,17.90
2022-08-09T05:42:17.247Z,17.90
2022-08-09T05:47:19.357Z,18.10
2022-08-09T05:52:36.250Z,18.30
2022-08-09T05:57:55.179Z,18.50
2022-08-09T06:00:23.375Z,18.60
2022-08-09T06:02:54.713Z,18.80
2022-08-09T06:05:30.752Z,19.30
2022-08-09T06:10:39.079Z,21.90
2022-08-09T06:13:12.266Z,23.10
2022-08-09T06:15:46.818Z,24.30
2022-08-09T06:18:15.859Z,24.90
2022-08-09T06:25:49.778Z,27.00
2022-08-09T06:28:22.511Z,26.60
2022-08-09T06:41:18.844Z,24.60
2022-08-09T06:43:47.489Z,23.70
2022-08-09T06:46:40.485Z,23.30
2022-08-09T06:49:02.065Z,22.70
2022-08-09T06:54:00.730Z,21.70
2022-08-09T06:56:31.108Z,21.60
2022-08-09T07:00:55.579Z,21.50
2022-08-09T07:01:54.298Z,21.60
2022-08-09T07:04:27.049Z,21.40
2022-08-09T07:07:00.019Z,21.50
2022-08-09T07:09:57.065Z,21.60
2022-08-09T07:12:17.996Z,21.50
2022-08-09T07:22:18.357Z,21.70
2022-08-09T07:24:49.618Z,21.80
2022-08-09T07:35:02.657Z,21.70
2022-08-09T07:40:18.259Z,22.10
2022-08-09T07:42:54.343Z,22.30
2022-08-09T07:45:38.306Z,22.40
2022-08-09T07:48:07.306Z,22.50
2022-08-09T07:53:05.120Z,22.60
2022-08-09T07:58:21.661Z,22.80
2022-08-09T08:06:04.654Z,22.70
2022-08-09T08:09:02.469Z,22.80
2022-08-09T08:16:34.551Z,23.10
2022-08-09T08:19:02.829Z,23.00
2022-08-09T08:26:42.199Z,23.10
2022-08-09T08:32:04.555Z,23.30
2022-08-09T08:34:34.325Z,23.50
2022-08-09T08:44:37.007Z,23.80
2022-08-09T08:47:12.883Z,23.80
2022-08-09T08:49:48.390Z,23.90
2022-08-09T08:52:48.498Z,23.90
2022-08-09T08:55:05.831Z,23.90
2022-08-09T08:57:34.744Z,23.90
2022-08-09T09:05:02.937Z,24.10
2022-08-09T09:10:09.207Z,24.00
2022-08-09T09:12:36.908Z,24.10
2022-08-09T09:15:06.504Z,24.40
2022-08-09T09:17:48.248Z,24.40
2022-08-09T09:23:01.785Z,24.60
2022-08-09T09:26:04.598Z,24.80
2022-08-09T09:31:17.193Z,24.90
2022-08-09T09:34:15.357Z,25.10
2022-08-09T09:36:51.179Z,25.20
2022-08-09T09:39:23.423Z,25.20
2022-08-09T09:41:54.277Z,25.20
2022-08-09T09:44:31.675Z,25.20
2022-08-09T09:47:10.115Z,25.30
2022-08-09T09:50:13.688Z,25.30
2022-08-09T09:52:52.554Z,25.20
2022-08-09T09:55:24.207Z,25.20
2022-08-09T09:58:18.003Z,25.30
2022-08-09T10:25:03.499Z,26.40
2022-08-09T10:27:45.376Z,26.40
2022-08-09T10:38:43.258Z,26.50
2022-08-09T10:41:17.840Z,26.40
2022-08-09T10:52:21.373Z,26.80
2022-08-09T11:13:50.174Z,27.30
2022-08-09T11:16:35.170Z,27.30
2022-08-09T11:24:25.278Z,27.20
2022-08-09T11:38:28.514Z,27.30
2022-08-09T11:49:05.268Z,27.70
2022-08-09T11:52:56.525Z,27.60
2022-08-09T12:05:42.392Z,27.50
2022-08-09T12:10:53.018Z,27.40
2022-08-09T12:16:41.639Z,27.50
2022-08-09T12:24:25.035Z,27.70
2022-08-09T12:28:58.460Z,27.70
2022-08-09T12:32:40.847Z,27.90
2022-08-09T12:37:50.316Z,28.00
2022-08-09T12:45:34.872Z,28.10
2022-08-09T12:53:32.150Z,28.10
2022-08-09T12:59:10.899Z,28.10
2022-08-09T13:29:08.708Z,28.10
2022-08-09T13:32:19.967Z,28.20
2022-08-09T13:50:30.167Z,28.40
2022-08-09T13:55:28.921Z,28.40
2022-08-09T14:00:29.130Z,28.50
2022-08-09T14:03:03.125Z,28.30
2022-08-09T14:18:49.663Z,28.00
2022-08-09T14:21:23.188Z,28.00
2022-08-09T14:23:54.820Z,28.10
2022-08-09T14:26:32.127Z,28.30
2022-08-09T14:29:02.598Z,28.30
2022-08-09T14:31:36.191Z,28.20
2022-08-09T14:34:17.254Z,28.30
2022-08-09T14:36:44.649Z,28.30
2022-08-09T14:39:12.034Z,28.40
2022-08-09T14:47:03.034Z,28.40
2022-08-09T14:49:26.262Z,28.40
2022-08-09T14:51:59.024Z,28.40
2022-08-09T14:54:28.366Z,28.30
2022-08-09T14:56:58.313Z,28.30
2022-08-09T14:59:28.373Z,28.40
2022-08-09T15:04:23.472Z,28.40
2022-08-09T15:06:51.370Z,28.50
2022-08-09T15:10:03.533Z,28.50
2022-08-09T15:12:08.127Z,28.50
2022-08-09T15:14:38.618Z,28.50
2022-08-09T15:17:09.841Z,28.50
2022-08-09T15:22:26.198Z,28.40
2022-08-09T15:24:53.809Z,28.40
2022-08-09T15:27:21.477Z,28.30
2022-08-09T15:30:58.205Z,28.40
2022-08-09T15:32:35.817Z,28.50
2022-08-09T15:35:18.247Z,28.50
2022-08-09T15:38:00.697Z,28.50
2022-08-09T15:40:37.603Z,28.50
2022-08-09T15:43:13.291Z,28.50
2022-08-09T15:46:07.807Z,28.50
2022-08-09T15:48:28.703Z,28.50
2022-08-09T15:50:56.835Z,28.50
2022-08-09T15:56:21.553Z,28.40
2022-08-09T16:01:23.090Z,28.40
2022-08-09T16:03:51.075Z,28.40
2022-08-09T16:06:29.521Z,28.40
2022-08-09T16:09:03.420Z,28.30
2022-08-09T16:11:33.090Z,28.40
2022-08-09T16:14:05.271Z,28.30
2022-08-09T16:16:34.606Z,28.20
2022-08-09T16:19:04.903Z,28.20
2022-08-09T16:24:04.732Z,28.20
2022-08-09T16:26:35.665Z,28.20
2022-08-09T16:29:12.512Z,28.20
2022-08-09T16:32:20.131Z,27.00
2022-08-09T16:34:54.982Z,28.20
2022-08-09T16:37:56.164Z,28.20
2022-08-09T16:40:10.863Z,28.20
2022-08-09T16:42:39.047Z,28.10
2022-08-09T16:45:18.958Z,28.10
2022-08-09T16:48:38.948Z,28.10
2022-08-09T16:50:38.293Z,28.10
2022-08-09T16:53:05.879Z,28.00
2022-08-09T17:06:08.180Z,27.80
2022-08-09T17:09:03.262Z,27.80
2022-08-09T17:11:40.835Z,27.80
2022-08-09T17:14:26.037Z,27.70
2022-08-09T17:16:56.506Z,27.70
2022-08-09T17:19:27.545Z,27.60
2022-08-09T17:24:47.784Z,27.50
2022-08-09T17:27:21.566Z,27.50
2022-08-09T17:32:20.361Z,27.50
2022-08-09T17:35:04.173Z,27.40
2022-08-09T17:40:26.541Z,27.30
2022-08-09T17:42:59.657Z,27.30
2022-08-09T17:46:01.997Z,27.20
2022-08-09T17:50:48.566Z,27.10
2022-08-09T17:53:23.483Z,27.10
2022-08-09T17:55:55.782Z,27.10
2022-08-09T17:58:26.972Z,27.00
2022-08-09T18:00:56.641Z,27.00
2022-08-09T18:03:25.756Z,27.00
2022-08-09T18:05:53.635Z,26.90
2022-08-09T18:08:27.168Z,26.80
2022-08-09T18:11:01.678Z,26.70
2022-08-09T18:13:54.615Z,26.70
2022-08-09T18:19:03.646Z,26.60
2022-08-09T18:24:14.454Z,26.40
2022-08-09T18:30:35.326Z,26.30
2022-08-09T18:32:03.379Z,26.10
2022-08-09T18:37:05.611Z,26.10
2022-08-09T18:42:09.230Z,25.90
2022-08-09T18:44:36.296Z,25.90
2022-08-09T18:47:07.404Z,25.80
2022-08-09T18:49:43.354Z,25.70
2022-08-09T18:52:14.484Z,25.70
2022-08-09T18:59:55.500Z,25.40
2022-08-09T19:07:43.273Z,25.20
2022-08-09T19:15:56.645Z,25.10
2022-08-09T19:18:34.087Z,25.00
2022-08-09T19:21:09.832Z,25.00
2022-08-09T19:24:37.015Z,24.90
2022-08-09T19:26:31.164Z,24.80
2022-08-09T19:29:01.522Z,24.70
2022-08-09T19:31:30.241Z,24.70
2022-08-09T19:36:30.893Z,24.60
2022-08-09T19:41:35.599Z,24.50
2022-08-09T19:44:03.423Z,24.30
2022-08-09T19:50:05.226Z,24.20
2022-08-09T19:51:55.730Z,24.20
2022-08-09T19:54:26.583Z,24.10
2022-08-09T19:56:57.048Z,24.00
2022-08-09T19:59:58.239Z,24.00
2022-08-09T20:02:18.198Z,24.00
2022-08-09T20:05:02.461Z,23.90
2022-08-09T20:08:00.079Z,23.90
2022-08-09T20:13:04.801Z,23.80
2022-08-09T20:16:33.265Z,23.70
2022-08-09T20:23:19.323Z,23.70
2022-08-09T20:28:27.859Z,23.50
2022-08-09T20:31:04.537Z,23.50
2022-08-09T20:39:17.192Z,23.40
2022-08-09T20:41:35.098Z,23.30
2022-08-09T20:44:06.941Z,23.30
2022-08-09T20:51:41.621Z,23.10
2022-08-09T20:54:12.824Z,23.00
2022-08-09T20:59:17.105Z,22.90
2022-08-09T21:01:50.812Z,22.90
2022-08-09T21:05:52.970Z,22.90
2022-08-09T21:07:13.053Z,22.80
2022-08-09T21:09:56.487Z,22.80
2022-08-09T21:18:22.818Z,22.70
2022-08-09T21:20:29.943Z,22.60
2022-08-09T21:22:57.446Z,22.50
2022-08-09T21:28:33.639Z,22.40
2022-08-09T21:33:52.393Z,22.40
2022-08-09T21:36:30.504Z,22.20
2022-08-09T21:38:59.620Z,22.20
2022-08-09T21:42:05.687Z,22.20
2022-08-09T21:44:33.745Z,22.10
2022-08-09T21:52:17.497Z,21.90
2022-08-09T21:55:02.865Z,21.90
2022-08-09T21:57:39.586Z,21.90
2022-08-09T22:00:32.145Z,21.90
2022-08-09T22:03:02.490Z,21.80
2022-08-09T22:05:37.013Z,21.80
2022-08-09T22:08:13.873Z,21.90
2022-08-09T22:11:49.056Z,21.80
2022-08-09T22:13:34.055Z,21.70
2022-08-09T22:16:03.681Z,21.80
2022-08-09T22:18:32.954Z,21.80
2022-08-09T22:21:00.654Z,21.70
2022-08-09T22:26:05.422Z,21.60
2022-08-09T22:36:22.307Z,21.40
2022-08-09T22:41:16.459Z,21.40
2022-08-09T22:44:01.337Z,21.40
2022-08-09T22:48:13.132Z,21.50
2022-08-09T22:49:17.547Z,21.40
2022-08-09T22:51:49.986Z,21.40
2022-08-09T22:59:57.431Z,21.30
2022-08-09T23:08:27.463Z,21.20
2022-08-09T23:10:26.861Z,21.00
2022-08-09T23:12:53.590Z,20.90
2022-08-09T23:22:41.738Z,20.70
2022-08-09T23:27:36.155Z,20.60
2022-08-09T23:30:22.645Z,20.50
2022-08-09T23:32:49.718Z,20.50
2022-08-09T23:37:43.536Z,20.40
2022-08-09T23:40:10.877Z,20.30
2022-08-09T23:42:37.709Z,20.10
2022-08-09T23:45:08.847Z,20.00
2022-08-09T23:47:35.739Z,19.90
2022-08-09T23:50:02.474Z,19.80
2022-08-09T23:54:57.787Z,19.70
2022-08-09T23:57:24.543Z,19.60
